sensor_id;sensor_type;location;lat;lon;timestamp;temperature;humidity
51305;HTU21D;37392;50.964;6.952;2024-03-23T00:52:22;7.93;14.20
51305;HTU21D;37392;50.964;6.952;2024-03-23T00:54:48;7.94;14.34
51305;HTU21D;37392;50.964;6.952;2024-03-23T00:57:14;7.93;14.27
51305;HTU21D;37392;50.964;6.952;2024-03-23T00:59:39;8.00;14.36
51305;HTU21D;37392;50.964;6.952;2024-03-23T01:02:05;8.01;14.62
51305;HTU21D;37392;50.964;6.952;2024-03-23T01:04:30;8.02;14.58
51305;HTU21D;37392;50.964;6.952;2024-03-23T01:06:59;8.01;14.61
51305;HTU21D;37392;50.964;6.952;2024-03-23T01:09:24;8.02;14.56
51305;HTU21D;37392;50.964;6.952;2024-03-23T01:11:50;8.02;14.45
51305;HTU21D;37392;50.964;6.952;2024-03-23T01:14:15;7.99;14.07
51305;HTU21D;37392;50.964;6.952;2024-03-23T01:16:41;7.94;13.98
51305;HTU21D;37392;50.964;6.952;2024-03-23T01:19:06;7.90;13.91
51305;HTU21D;37392;50.964;6.952;2024-03-23T01:21:32;7.81;13.33
51305;HTU21D;37392;50.964;6.952;2024-03-23T01:23:57;7.72;13.36
51305;HTU21D;37392;50.964;6.952;2024-03-23T01:26:23;7.62;12.86
51305;HTU21D;37392;50.964;6.952;2024-03-23T01:28:48;7.55;12.71
51305;HTU21D;37392;50.964;6.952;2024-03-23T01:31:14;7.46;12.78
51305;HTU21D;37392;50.964;6.952;2024-03-23T01:33:41;7.37;12.72
51305;HTU21D;37392;50.964;6.952;2024-03-23T01:36:06;7.22;11.66
51305;HTU21D;37392;50.964;6.952;2024-03-23T01:38:32;7.12;11.96
51305;HTU21D;37392;50.964;6.952;2024-03-23T01:40:57;7.10;12.62
51305;HTU21D;37392;50.964;6.952;2024-03-23T01:43:23;7.02;12.24
51305;HTU21D;37392;50.964;6.952;2024-03-23T01:45:49;7.04;12.88
51305;HTU21D;37392;50.964;6.952;2024-03-23T01:48:15;7.01;12.94
51305;HTU21D;37392;50.964;6.952;2024-03-23T01:50:40;6.97;12.86
51305;HTU21D;37392;50.964;6.952;2024-03-23T01:53:06;6.95;13.00
51305;HTU21D;37392;50.964;6.952;2024-03-23T01:55:35;6.90;13.04
51305;HTU21D;37392;50.964;6.952;2024-03-23T01:58:00;6.91;13.17
51305;HTU21D;37392;50.964;6.952;2024-03-23T02:00:26;6.90;13.31
51305;HTU21D;37392;50.964;6.952;2024-03-23T02:02:53;6.94;13.49
51305;HTU21D;37392;50.964;6.952;2024-03-23T02:05:18;6.91;13.20
51305;HTU21D;37392;50.964;6.952;2024-03-23T02:07:44;6.87;13.08
51305;HTU21D;37392;50.964;6.952;2024-03-23T02:10:10;6.86;12.91
51305;HTU21D;37392;50.964;6.952;2024-03-23T02:12:38;6.86;13.14
51305;HTU21D;37392;50.964;6.952;2024-03-23T02:15:04;6.89;13.17
51305;HTU21D;37392;50.964;6.952;2024-03-23T02:17:31;6.87;13.32
51305;HTU21D;37392;50.964;6.952;2024-03-23T02:19:59;6.79;12.64
51305;HTU21D;37392;50.964;6.952;2024-03-23T02:22:33;6.74;12.42
51305;HTU21D;37392;50.964;6.952;2024-03-23T02:25:00;6.71;12.50
51305;HTU21D;37392;50.964;6.952;2024-03-23T02:27:27;6.74;12.88
51305;HTU21D;37392;50.964;6.952;2024-03-23T02:29:53;6.73;12.88
51305;HTU21D;37392;50.964;6.952;2024-03-23T02:32:18;6.72;12.73
51305;HTU21D;37392;50.964;6.952;2024-03-23T02:34:44;6.67;11.95
51305;HTU21D;37392;50.964;6.952;2024-03-23T02:37:12;6.63;11.72
51305;HTU21D;37392;50.964;6.952;2024-03-23T02:39:38;6.55;11.97
51305;HTU21D;37392;50.964;6.952;2024-03-23T02:42:03;6.48;10.92
51305;HTU21D;37392;50.964;6.952;2024-03-23T02:44:29;6.41;11.35
51305;HTU21D;37392;50.964;6.952;2024-03-23T02:46:54;6.30;9.65
51305;HTU21D;37392;50.964;6.952;2024-03-23T02:49:20;6.24;10.38
51305;HTU21D;37392;50.964;6.952;2024-03-23T02:51:46;6.25;11.24
51305;HTU21D;37392;50.964;6.952;2024-03-23T02:54:13;6.19;10.79
51305;HTU21D;37392;50.964;6.952;2024-03-23T02:56:39;6.11;10.53
51305;HTU21D;37392;50.964;6.952;2024-03-23T02:59:05;6.11;10.94
51305;HTU21D;37392;50.964;6.952;2024-03-23T03:01:30;6.13;11.75
51305;HTU21D;37392;50.964;6.952;2024-03-23T03:03:56;6.16;11.75
51305;HTU21D;37392;50.964;6.952;2024-03-23T03:06:27;6.12;11.44
51305;HTU21D;37392;50.964;6.952;2024-03-23T03:08:53;6.07;10.96
51305;HTU21D;37392;50.964;6.952;2024-03-23T03:11:18;6.04;11.33
51305;HTU21D;37392;50.964;6.952;2024-03-23T03:13:44;6.04;11.27
51305;HTU21D;37392;50.964;6.952;2024-03-23T03:16:12;5.98;11.44
51305;HTU21D;37392;50.964;6.952;2024-03-23T03:18:38;5.96;11.40
51305;HTU21D;37392;50.964;6.952;2024-03-23T03:21:05;5.85;10.04
51305;HTU21D;37392;50.964;6.952;2024-03-23T03:23:33;5.79;10.24
51305;HTU21D;37392;50.964;6.952;2024-03-23T03:25:59;5.77;10.00
51305;HTU21D;37392;50.964;6.952;2024-03-23T03:28:24;5.79;11.03
51305;HTU21D;37392;50.964;6.952;2024-03-23T03:30:51;5.85;11.10
51305;HTU21D;37392;50.964;6.952;2024-03-23T03:33:16;5.87;11.52
51305;HTU21D;37392;50.964;6.952;2024-03-23T03:35:42;5.93;11.86
51305;HTU21D;37392;50.964;6.952;2024-03-23T03:38:08;5.92;11.49
51305;HTU21D;37392;50.964;6.952;2024-03-23T03:40:35;5.91;11.84
51305;HTU21D;37392;50.964;6.952;2024-03-23T03:43:00;5.93;12.10
51305;HTU21D;37392;50.964;6.952;2024-03-23T03:45:26;5.96;12.63
51305;HTU21D;37392;50.964;6.952;2024-03-23T03:47:51;5.95;12.82
51305;HTU21D;37392;50.964;6.952;2024-03-23T03:50:17;5.95;12.94
51305;HTU21D;37392;50.964;6.952;2024-03-23T03:52:42;5.97;12.83
51305;HTU21D;37392;50.964;6.952;2024-03-23T03:55:13;5.99;13.01
51305;HTU21D;37392;50.964;6.952;2024-03-23T03:57:39;6.01;13.07
51305;HTU21D;37392;50.964;6.952;2024-03-23T04:00:06;5.99;13.21
51305;HTU21D;37392;50.964;6.952;2024-03-23T04:02:32;5.99;13.07
51305;HTU21D;37392;50.964;6.952;2024-03-23T04:04:58;5.98;13.18
51305;HTU21D;37392;50.964;6.952;2024-03-23T04:07:23;5.99;13.34
51305;HTU21D;37392;50.964;6.952;2024-03-23T04:09:49;5.99;13.30
51305;HTU21D;37392;50.964;6.952;2024-03-23T04:12:15;6.00;13.39
51305;HTU21D;37392;50.964;6.952;2024-03-23T04:14:40;6.00;13.54
51305;HTU21D;37392;50.964;6.952;2024-03-23T04:17:06;6.00;13.64
51305;HTU21D;37392;50.964;6.952;2024-03-23T04:19:32;6.02;13.73
51305;HTU21D;37392;50.964;6.952;2024-03-23T04:21:57;6.00;13.47
51305;HTU21D;37392;50.964;6.952;2024-03-23T04:24:23;5.98;13.38
51305;HTU21D;37392;50.964;6.952;2024-03-23T04:26:50;5.95;13.34
51305;HTU21D;37392;50.964;6.952;2024-03-23T04:29:15;5.95;13.31
51305;HTU21D;37392;50.964;6.952;2024-03-23T04:31:41;5.95;13.53
51305;HTU21D;37392;50.964;6.952;2024-03-23T04:34:06;5.96;13.71
51305;HTU21D;37392;50.964;6.952;2024-03-23T04:36:31;5.97;13.75
51305;HTU21D;37392;50.964;6.952;2024-03-23T04:38:59;5.94;13.58
51305;HTU21D;37392;50.964;6.952;2024-03-23T04:41:25;5.96;13.90
51305;HTU21D;37392;50.964;6.952;2024-03-23T04:43:51;5.95;14.01
51305;HTU21D;37392;50.964;6.952;2024-03-23T04:46:16;5.96;13.91
51305;HTU21D;37392;50.964;6.952;2024-03-23T04:48:42;5.96;13.95
51305;HTU21D;37392;50.964;6.952;2024-03-23T04:51:09;5.97;13.89
51305;HTU21D;37392;50.964;6.952;2024-03-23T04:53:37;5.95;13.77
51305;HTU21D;37392;50.964;6.952;2024-03-23T04:56:03;5.95;13.99
51305;HTU21D;37392;50.964;6.952;2024-03-23T04:58:29;5.89;13.90
51305;HTU21D;37392;50.964;6.952;2024-03-23T05:00:56;5.84;13.42
51305;HTU21D;37392;50.964;6.952;2024-03-23T05:03:22;5.80;13.24
51305;HTU21D;37392;50.964;6.952;2024-03-23T05:05:49;5.82;13.50
51305;HTU21D;37392;50.964;6.952;2024-03-23T05:08:15;5.85;13.65
51305;HTU21D;37392;50.964;6.952;2024-03-23T05:10:42;5.87;13.80
51305;HTU21D;37392;50.964;6.952;2024-03-23T05:13:08;5.85;13.65
51305;HTU21D;37392;50.964;6.952;2024-03-23T05:15:33;5.89;13.66
51305;HTU21D;37392;50.964;6.952;2024-03-23T05:17:59;5.90;13.97
51305;HTU21D;37392;50.964;6.952;2024-03-23T05:20:24;5.92;13.85
51305;HTU21D;37392;50.964;6.952;2024-03-23T05:22:50;5.93;13.78
51305;HTU21D;37392;50.964;6.952;2024-03-23T05:25:16;5.95;13.65
51305;HTU21D;37392;50.964;6.952;2024-03-23T05:27:41;5.93;13.58
51305;HTU21D;37392;50.964;6.952;2024-03-23T05:30:07;5.97;13.58
51305;HTU21D;37392;50.964;6.952;2024-03-23T05:32:34;5.97;13.58
51305;HTU21D;37392;50.964;6.952;2024-03-23T05:34:59;5.97;13.05
51305;HTU21D;37392;50.964;6.952;2024-03-23T05:37:25;5.92;12.81
51305;HTU21D;37392;50.964;6.952;2024-03-23T05:39:51;5.85;13.11
51305;HTU21D;37392;50.964;6.952;2024-03-23T05:42:17;5.92;13.43
51305;HTU21D;37392;50.964;6.952;2024-03-23T05:44:46;5.91;13.61
51305;HTU21D;37392;50.964;6.952;2024-03-23T05:47:13;5.93;13.75
51305;HTU21D;37392;50.964;6.952;2024-03-23T05:49:40;5.92;13.57
51305;HTU21D;37392;50.964;6.952;2024-03-23T05:52:07;5.92;13.46
51305;HTU21D;37392;50.964;6.952;2024-03-23T05:54:34;5.92;13.50
51305;HTU21D;37392;50.964;6.952;2024-03-23T05:56:59;5.94;13.69
51305;HTU21D;37392;50.964;6.952;2024-03-23T05:59:25;5.95;13.63
51305;HTU21D;37392;50.964;6.952;2024-03-23T06:01:52;5.92;13.12
51305;HTU21D;37392;50.964;6.952;2024-03-23T06:04:18;5.90;13.21
51305;HTU21D;37392;50.964;6.952;2024-03-23T06:06:43;5.91;13.42
51305;HTU21D;37392;50.964;6.952;2024-03-23T06:09:08;5.95;13.37
51305;HTU21D;37392;50.964;6.952;2024-03-23T06:11:34;5.94;13.37
51305;HTU21D;37392;50.964;6.952;2024-03-23T06:13:59;5.94;13.26
51305;HTU21D;37392;50.964;6.952;2024-03-23T06:16:25;5.91;12.57
51305;HTU21D;37392;50.964;6.952;2024-03-23T06:18:52;5.94;12.45
51305;HTU21D;37392;50.964;6.952;2024-03-23T06:21:18;5.99;12.93
51305;HTU21D;37392;50.964;6.952;2024-03-23T06:23:44;6.12;13.17
51305;HTU21D;37392;50.964;6.952;2024-03-23T06:26:17;6.15;13.02
51305;HTU21D;37392;50.964;6.952;2024-03-23T06:28:43;6.10;12.42
51305;HTU21D;37392;50.964;6.952;2024-03-23T06:31:12;6.00;12.52
51305;HTU21D;37392;50.964;6.952;2024-03-23T06:33:38;5.98;12.16
51305;HTU21D;37392;50.964;6.952;2024-03-23T06:36:05;5.96;12.29
51305;HTU21D;37392;50.964;6.952;2024-03-23T06:38:31;6.02;12.47
51305;HTU21D;37392;50.964;6.952;2024-03-23T06:40:56;6.29;13.42
51305;HTU21D;37392;50.964;6.952;2024-03-23T06:43:23;6.99;15.02
51305;HTU21D;37392;50.964;6.952;2024-03-23T06:45:55;7.40;13.65
51305;HTU21D;37392;50.964;6.952;2024-03-23T06:48:21;7.85;13.27
51305;HTU21D;37392;50.964;6.952;2024-03-23T06:50:47;8.33;10.60
51305;HTU21D;37392;50.964;6.952;2024-03-23T06:53:13;9.00;8.32
51305;HTU21D;37392;50.964;6.952;2024-03-23T06:55:40;9.65;3.98
51305;HTU21D;37392;50.964;6.952;2024-03-23T06:58:06;10.15;-1.06
51305;HTU21D;37392;50.964;6.952;2024-03-23T07:00:32;10.79;-4.86
51305;HTU21D;37392;50.964;6.952;2024-03-23T07:02:58;11.23;116.99
51305;HTU21D;37392;50.964;6.952;2024-03-23T07:05:24;11.82;117.39
51305;HTU21D;37392;50.964;6.952;2024-03-23T07:07:50;12.47;115.22
51305;HTU21D;37392;50.964;6.952;2024-03-23T07:10:15;12.80;107.28
51305;HTU21D;37392;50.964;6.952;2024-03-23T07:12:41;13.30;106.31
51305;HTU21D;37392;50.964;6.952;2024-03-23T07:15:07;13.49;101.48
51305;HTU21D;37392;50.964;6.952;2024-03-23T07:17:33;13.81;101.20
51305;HTU21D;37392;50.964;6.952;2024-03-23T07:20:03;14.13;98.54
51305;HTU21D;37392;50.964;6.952;2024-03-23T07:22:32;14.23;98.03
51305;HTU21D;37392;50.964;6.952;2024-03-23T07:25:00;14.71;98.39
51305;HTU21D;37392;50.964;6.952;2024-03-23T07:27:26;14.87;92.87
51305;HTU21D;37392;50.964;6.952;2024-03-23T07:29:51;15.09;93.58
51305;HTU21D;37392;50.964;6.952;2024-03-23T07:32:17;15.19;90.77
51305;HTU21D;37392;50.964;6.952;2024-03-23T07:34:43;15.61;91.24
51305;HTU21D;37392;50.964;6.952;2024-03-23T07:37:10;15.83;88.35
51305;HTU21D;37392;50.964;6.952;2024-03-23T07:39:35;16.06;87.07
51305;HTU21D;37392;50.964;6.952;2024-03-23T07:42:01;16.17;85.85
51305;HTU21D;37392;50.964;6.952;2024-03-23T07:44:27;16.08;84.50
51305;HTU21D;37392;50.964;6.952;2024-03-23T07:46:53;16.57;87.93
51305;HTU21D;37392;50.964;6.952;2024-03-23T07:49:18;16.71;83.64
51305;HTU21D;37392;50.964;6.952;2024-03-23T07:51:44;16.67;82.61
51305;HTU21D;37392;50.964;6.952;2024-03-23T07:54:10;16.31;84.87
51305;HTU21D;37392;50.964;6.952;2024-03-23T07:56:35;16.15;83.75
51305;HTU21D;37392;50.964;6.952;2024-03-23T07:59:01;16.06;83.93
51305;HTU21D;37392;50.964;6.952;2024-03-23T08:01:28;16.16;82.91
51305;HTU21D;37392;50.964;6.952;2024-03-23T08:03:54;16.78;82.20
51305;HTU21D;37392;50.964;6.952;2024-03-23T08:06:20;17.38;80.04
51305;HTU21D;37392;50.964;6.952;2024-03-23T08:08:50;17.45;76.69
51305;HTU21D;37392;50.964;6.952;2024-03-23T08:11:28;18.29;77.15
51305;HTU21D;37392;50.964;6.952;2024-03-23T08:13:55;18.71;75.39
51305;HTU21D;37392;50.964;6.952;2024-03-23T08:16:21;18.59;74.31
51305;HTU21D;37392;50.964;6.952;2024-03-23T08:18:47;18.76;71.30
51305;HTU21D;37392;50.964;6.952;2024-03-23T08:21:12;18.93;72.08
51305;HTU21D;37392;50.964;6.952;2024-03-23T08:23:38;19.47;70.34
51305;HTU21D;37392;50.964;6.952;2024-03-23T08:26:06;19.62;66.84
51305;HTU21D;37392;50.964;6.952;2024-03-23T08:28:35;19.85;65.94
51305;HTU21D;37392;50.964;6.952;2024-03-23T08:31:03;20.21;62.27
51305;HTU21D;37392;50.964;6.952;2024-03-23T08:33:34;19.89;59.82
51305;HTU21D;37392;50.964;6.952;2024-03-23T08:36:01;19.44;61.96
51305;HTU21D;37392;50.964;6.952;2024-03-23T08:38:29;18.32;63.92
51305;HTU21D;37392;50.964;6.952;2024-03-23T08:43:41;16.62;65.76
51305;HTU21D;37392;50.964;6.952;2024-03-23T08:46:11;16.22;68.78
51305;HTU21D;37392;50.964;6.952;2024-03-23T08:48:42;15.97;67.67
51305;HTU21D;37392;50.964;6.952;2024-03-23T08:51:09;16.54;67.32
51305;HTU21D;37392;50.964;6.952;2024-03-23T08:53:36;17.02;66.27
51305;HTU21D;37392;50.964;6.952;2024-03-23T08:56:03;17.36;64.86
51305;HTU21D;37392;50.964;6.952;2024-03-23T08:58:31;18.22;64.13
51305;HTU21D;37392;50.964;6.952;2024-03-23T09:01:12;18.81;61.84
51305;HTU21D;37392;50.964;6.952;2024-03-23T09:03:41;19.14;60.92
51305;HTU21D;37392;50.964;6.952;2024-03-23T09:06:08;18.36;60.35
51305;HTU21D;37392;50.964;6.952;2024-03-23T09:08:35;17.18;62.00
51305;HTU21D;37392;50.964;6.952;2024-03-23T09:11:09;16.56;65.09
51305;HTU21D;37392;50.964;6.952;2024-03-23T09:13:36;16.57;66.18
51305;HTU21D;37392;50.964;6.952;2024-03-23T09:16:03;16.31;65.58
51305;HTU21D;37392;50.964;6.952;2024-03-23T09:18:32;15.93;67.68
51305;HTU21D;37392;50.964;6.952;2024-03-23T09:21:00;15.63;68.20
51305;HTU21D;37392;50.964;6.952;2024-03-23T09:23:26;15.27;69.16
51305;HTU21D;37392;50.964;6.952;2024-03-23T09:25:52;15.15;69.93
51305;HTU21D;37392;50.964;6.952;2024-03-23T09:28:17;15.06;69.18
51305;HTU21D;37392;50.964;6.952;2024-03-23T09:30:43;14.53;69.66
51305;HTU21D;37392;50.964;6.952;2024-03-23T09:33:12;14.15;71.57
51305;HTU21D;37392;50.964;6.952;2024-03-23T09:35:43;15.08;70.87
51305;HTU21D;37392;50.964;6.952;2024-03-23T09:38:10;16.82;65.17
51305;HTU21D;37392;50.964;6.952;2024-03-23T09:40:42;18.55;60.76
51305;HTU21D;37392;50.964;6.952;2024-03-23T09:43:09;19.91;56.30
51305;HTU21D;37392;50.964;6.952;2024-03-23T09:45:38;20.61;53.36
51305;HTU21D;37392;50.964;6.952;2024-03-23T09:48:06;20.86;52.30
51305;HTU21D;37392;50.964;6.952;2024-03-23T09:50:32;20.66;50.85
51305;HTU21D;37392;50.964;6.952;2024-03-23T09:52:57;21.32;50.13
51305;HTU21D;37392;50.964;6.952;2024-03-23T09:55:23;22.16;48.44
51305;HTU21D;37392;50.964;6.952;2024-03-23T09:57:50;22.02;47.28
51305;HTU21D;37392;50.964;6.952;2024-03-23T10:00:15;20.89;48.67
51305;HTU21D;37392;50.964;6.952;2024-03-23T10:02:42;20.57;50.25
51305;HTU21D;37392;50.964;6.952;2024-03-23T10:05:20;19.73;50.15
51305;HTU21D;37392;50.964;6.952;2024-03-23T10:07:50;19.32;51.50
51305;HTU21D;37392;50.964;6.952;2024-03-23T10:10:17;19.80;50.45
51305;HTU21D;37392;50.964;6.952;2024-03-23T10:12:50;19.50;50.06
51305;HTU21D;37392;50.964;6.952;2024-03-23T10:15:23;19.20;51.53
51305;HTU21D;37392;50.964;6.952;2024-03-23T10:17:50;19.65;50.70
51305;HTU21D;37392;50.964;6.952;2024-03-23T10:20:23;20.03;49.98
51305;HTU21D;37392;50.964;6.952;2024-03-23T10:22:50;20.41;49.35
51305;HTU21D;37392;50.964;6.952;2024-03-23T10:25:24;19.40;49.85
51305;HTU21D;37392;50.964;6.952;2024-03-23T10:27:58;18.77;51.97
51305;HTU21D;37392;50.964;6.952;2024-03-23T10:30:28;18.04;52.69
51305;HTU21D;37392;50.964;6.952;2024-03-23T10:33:13;17.30;54.49
51305;HTU21D;37392;50.964;6.952;2024-03-23T10:35:40;16.76;56.22
51305;HTU21D;37392;50.964;6.952;2024-03-23T10:38:07;16.24;56.50
51305;HTU21D;37392;50.964;6.952;2024-03-23T10:40:36;15.90;58.35
51305;HTU21D;37392;50.964;6.952;2024-03-23T10:43:06;15.52;60.34
51305;HTU21D;37392;50.964;6.952;2024-03-23T10:45:32;15.24;60.72
51305;HTU21D;37392;50.964;6.952;2024-03-23T10:47:58;14.80;61.28
51305;HTU21D;37392;50.964;6.952;2024-03-23T10:50:24;14.75;63.27
51305;HTU21D;37392;50.964;6.952;2024-03-23T10:52:52;14.73;63.60
51305;HTU21D;37392;50.964;6.952;2024-03-23T10:55:19;14.57;62.94
51305;HTU21D;37392;50.964;6.952;2024-03-23T10:57:54;14.48;61.27
51305;HTU21D;37392;50.964;6.952;2024-03-23T11:00:21;14.27;61.96
51305;HTU21D;37392;50.964;6.952;2024-03-23T11:02:49;13.82;73.45
51305;HTU21D;37392;50.964;6.952;2024-03-23T11:05:28;12.73;87.88
51305;HTU21D;37392;50.964;6.952;2024-03-23T11:07:55;11.78;91.25
51305;HTU21D;37392;50.964;6.952;2024-03-23T11:10:30;11.17;95.94
51305;HTU21D;37392;50.964;6.952;2024-03-23T11:12:58;10.92;98.63
51305;HTU21D;37392;50.964;6.952;2024-03-23T11:15:47;11.30;99.45
51305;HTU21D;37392;50.964;6.952;2024-03-23T11:18:20;12.06;97.26
51305;HTU21D;37392;50.964;6.952;2024-03-23T11:20:46;12.64;94.42
51305;HTU21D;37392;50.964;6.952;2024-03-23T11:23:28;12.37;90.28
51305;HTU21D;37392;50.964;6.952;2024-03-23T11:25:56;11.62;91.61
51305;HTU21D;37392;50.964;6.952;2024-03-23T11:28:22;10.79;91.59
51305;HTU21D;37392;50.964;6.952;2024-03-23T11:30:47;10.10;93.52
51305;HTU21D;37392;50.964;6.952;2024-03-23T11:33:14;9.99;96.58
51305;HTU21D;37392;50.964;6.952;2024-03-23T11:35:40;10.00;95.74
51305;HTU21D;37392;50.964;6.952;2024-03-23T11:38:08;9.98;95.74
51305;HTU21D;37392;50.964;6.952;2024-03-23T11:40:39;10.09;97.82
51305;HTU21D;37392;50.964;6.952;2024-03-23T11:43:27;10.31;97.41
51305;HTU21D;37392;50.964;6.952;2024-03-23T11:45:52;10.49;96.55
51305;HTU21D;37392;50.964;6.952;2024-03-23T11:48:22;10.67;96.44
51305;HTU21D;37392;50.964;6.952;2024-03-23T11:50:51;10.78;99.12
51305;HTU21D;37392;50.964;6.952;2024-03-23T11:53:21;10.77;96.83
51305;HTU21D;37392;50.964;6.952;2024-03-23T11:55:58;10.97;98.44
51305;HTU21D;37392;50.964;6.952;2024-03-23T11:58:26;11.37;99.80
51305;HTU21D;37392;50.964;6.952;2024-03-23T12:01:02;11.32;96.88
51305;HTU21D;37392;50.964;6.952;2024-03-23T12:03:30;10.96;91.36
51305;HTU21D;37392;50.964;6.952;2024-03-23T12:05:59;10.73;93.78
51305;HTU21D;37392;50.964;6.952;2024-03-23T12:08:33;10.65;92.61
51305;HTU21D;37392;50.964;6.952;2024-03-23T12:13:41;10.40;93.46
51305;HTU21D;37392;50.964;6.952;2024-03-23T12:18:46;10.49;91.69
51305;HTU21D;37392;50.964;6.952;2024-03-23T12:21:13;10.94;91.82
51305;HTU21D;37392;50.964;6.952;2024-03-23T12:23:39;11.44;90.46
51305;HTU21D;37392;50.964;6.952;2024-03-23T12:26:05;11.28;86.73
51305;HTU21D;37392;50.964;6.952;2024-03-23T12:28:32;11.04;86.12
51305;HTU21D;37392;50.964;6.952;2024-03-23T12:30:57;10.79;85.90
51305;HTU21D;37392;50.964;6.952;2024-03-23T12:33:23;10.67;87.83
51305;HTU21D;37392;50.964;6.952;2024-03-23T12:35:50;10.88;88.53
51305;HTU21D;37392;50.964;6.952;2024-03-23T12:38:16;10.88;88.60
51305;HTU21D;37392;50.964;6.952;2024-03-23T12:40:41;10.71;96.01
51305;HTU21D;37392;50.964;6.952;2024-03-23T12:43:07;10.42;96.60
51305;HTU21D;37392;50.964;6.952;2024-03-23T12:45:33;10.05;97.62
51305;HTU21D;37392;50.964;6.952;2024-03-23T12:47:58;9.67;99.32
51305;HTU21D;37392;50.964;6.952;2024-03-23T12:50:24;9.68;99.37
51305;HTU21D;37392;50.964;6.952;2024-03-23T12:52:49;9.85;98.32
51305;HTU21D;37392;50.964;6.952;2024-03-23T12:55:15;10.01;95.04
51305;HTU21D;37392;50.964;6.952;2024-03-23T12:57:40;10.29;93.43
51305;HTU21D;37392;50.964;6.952;2024-03-23T13:00:07;10.63;91.53
51305;HTU21D;37392;50.964;6.952;2024-03-23T13:02:35;10.63;87.25
51305;HTU21D;37392;50.964;6.952;2024-03-23T13:05:01;10.81;87.94
51305;HTU21D;37392;50.964;6.952;2024-03-23T13:07:26;10.97;89.64
51305;HTU21D;37392;50.964;6.952;2024-03-23T13:09:53;10.92;84.21
51305;HTU21D;37392;50.964;6.952;2024-03-23T13:12:19;11.01;83.38
51305;HTU21D;37392;50.964;6.952;2024-03-23T13:14:45;11.12;85.80
51305;HTU21D;37392;50.964;6.952;2024-03-23T13:17:11;11.05;81.88
51305;HTU21D;37392;50.964;6.952;2024-03-23T13:19:37;10.87;82.31
51305;HTU21D;37392;50.964;6.952;2024-03-23T13:22:03;10.88;84.63
51305;HTU21D;37392;50.964;6.952;2024-03-23T13:24:29;11.00;82.55
51305;HTU21D;37392;50.964;6.952;2024-03-23T13:26:55;11.15;83.75
51305;HTU21D;37392;50.964;6.952;2024-03-23T13:29:22;11.33;83.09
51305;HTU21D;37392;50.964;6.952;2024-03-23T13:31:48;11.62;82.17
51305;HTU21D;37392;50.964;6.952;2024-03-23T13:34:15;11.71;81.99
51305;HTU21D;37392;50.964;6.952;2024-03-23T13:36:42;11.98;80.88
51305;HTU21D;37392;50.964;6.952;2024-03-23T13:39:08;12.25;79.46
51305;HTU21D;37392;50.964;6.952;2024-03-23T13:41:44;12.67;77.72
51305;HTU21D;37392;50.964;6.952;2024-03-23T13:44:13;12.94;74.93
51305;HTU21D;37392;50.964;6.952;2024-03-23T13:46:40;13.00;73.73
51305;HTU21D;37392;50.964;6.952;2024-03-23T13:49:26;12.92;74.28
51305;HTU21D;37392;50.964;6.952;2024-03-23T13:51:54;12.76;73.97
51305;HTU21D;37392;50.964;6.952;2024-03-23T13:54:21;12.53;74.93
51305;HTU21D;37392;50.964;6.952;2024-03-23T13:56:50;12.14;75.34
51305;HTU21D;37392;50.964;6.952;2024-03-23T13:59:16;11.73;75.49
51305;HTU21D;37392;50.964;6.952;2024-03-23T14:01:43;11.51;74.89
51305;HTU21D;37392;50.964;6.952;2024-03-23T14:04:10;11.23;74.08
51305;HTU21D;37392;50.964;6.952;2024-03-23T14:06:36;11.10;74.89
51305;HTU21D;37392;50.964;6.952;2024-03-23T14:09:02;10.98;74.96
51305;HTU21D;37392;50.964;6.952;2024-03-23T14:11:29;11.00;75.58
51305;HTU21D;37392;50.964;6.952;2024-03-23T14:13:55;10.94;75.54
51305;HTU21D;37392;50.964;6.952;2024-03-23T14:16:20;10.99;73.60
51305;HTU21D;37392;50.964;6.952;2024-03-23T14:18:46;11.15;73.89
51305;HTU21D;37392;50.964;6.952;2024-03-23T14:21:12;11.42;73.84
51305;HTU21D;37392;50.964;6.952;2024-03-23T14:23:38;11.53;72.08
51305;HTU21D;37392;50.964;6.952;2024-03-23T14:26:03;11.54;71.80
51305;HTU21D;37392;50.964;6.952;2024-03-23T14:28:29;11.28;71.87
51305;HTU21D;37392;50.964;6.952;2024-03-23T14:30:55;11.13;71.54
51305;HTU21D;37392;50.964;6.952;2024-03-23T14:33:21;11.10;73.28
51305;HTU21D;37392;50.964;6.952;2024-03-23T14:35:54;10.97;72.69
51305;HTU21D;37392;50.964;6.952;2024-03-23T14:38:23;10.95;74.14
51305;HTU21D;37392;50.964;6.952;2024-03-23T14:40:49;11.10;73.68
51305;HTU21D;37392;50.964;6.952;2024-03-23T14:43:16;11.26;73.90
51305;HTU21D;37392;50.964;6.952;2024-03-23T14:46:06;11.30;72.45
51305;HTU21D;37392;50.964;6.952;2024-03-23T14:48:31;11.15;73.72
51305;HTU21D;37392;50.964;6.952;2024-03-23T14:50:58;10.86;77.81
51305;HTU21D;37392;50.964;6.952;2024-03-23T14:53:24;10.54;83.36
51305;HTU21D;37392;50.964;6.952;2024-03-23T14:55:50;9.88;87.94
51305;HTU21D;37392;50.964;6.952;2024-03-23T14:58:16;9.27;90.99
51305;HTU21D;37392;50.964;6.952;2024-03-23T15:00:42;8.94;96.01
51305;HTU21D;37392;50.964;6.952;2024-03-23T15:03:07;8.58;97.33
51305;HTU21D;37392;50.964;6.952;2024-03-23T15:05:33;8.26;95.63
51305;HTU21D;37392;50.964;6.952;2024-03-23T15:07:58;8.00;97.13
51305;HTU21D;37392;50.964;6.952;2024-03-23T15:10:24;7.73;96.92
51305;HTU21D;37392;50.964;6.952;2024-03-23T15:12:49;7.58;100.23
51305;HTU21D;37392;50.964;6.952;2024-03-23T15:15:15;7.49;102.02
51305;HTU21D;37392;50.964;6.952;2024-03-23T15:17:40;7.42;99.93
51305;HTU21D;37392;50.964;6.952;2024-03-23T15:20:10;7.43;101.22
51305;HTU21D;37392;50.964;6.952;2024-03-23T15:22:37;7.73;101.46
51305;HTU21D;37392;50.964;6.952;2024-03-23T15:25:02;8.11;100.40
51305;HTU21D;37392;50.964;6.952;2024-03-23T15:27:28;8.48;100.16
51305;HTU21D;37392;50.964;6.952;2024-03-23T15:29:56;8.61;96.44
51305;HTU21D;37392;50.964;6.952;2024-03-23T15:32:22;8.45;92.46
51305;HTU21D;37392;50.964;6.952;2024-03-23T15:34:48;8.29;94.07
51305;HTU21D;37392;50.964;6.952;2024-03-23T15:37:14;8.30;94.81
51305;HTU21D;37392;50.964;6.952;2024-03-23T15:39:40;8.39;94.91
51305;HTU21D;37392;50.964;6.952;2024-03-23T15:42:09;8.51;93.84
51305;HTU21D;37392;50.964;6.952;2024-03-23T15:44:35;8.53;92.81
51305;HTU21D;37392;50.964;6.952;2024-03-23T15:47:01;8.48;92.67
51305;HTU21D;37392;50.964;6.952;2024-03-23T15:49:26;8.34;92.28
51305;HTU21D;37392;50.964;6.952;2024-03-23T15:51:52;8.16;94.00
51305;HTU21D;37392;50.964;6.952;2024-03-23T15:54:18;7.99;93.65
51305;HTU21D;37392;50.964;6.952;2024-03-23T15:56:44;7.84;95.52
51305;HTU21D;37392;50.964;6.952;2024-03-23T15:59:09;7.68;95.89
51305;HTU21D;37392;50.964;6.952;2024-03-23T16:01:35;7.56;96.12
51305;HTU21D;37392;50.964;6.952;2024-03-23T16:04:01;7.50;98.02
51305;HTU21D;37392;50.964;6.952;2024-03-23T16:06:27;7.47;96.37
51305;HTU21D;37392;50.964;6.952;2024-03-23T16:08:52;7.56;96.97
51305;HTU21D;37392;50.964;6.952;2024-03-23T16:11:18;7.68;97.05
51305;HTU21D;37392;50.964;6.952;2024-03-23T16:13:44;7.76;96.11
51305;HTU21D;37392;50.964;6.952;2024-03-23T16:16:09;7.82;96.57
51305;HTU21D;37392;50.964;6.952;2024-03-23T16:18:36;7.84;96.50
51305;HTU21D;37392;50.964;6.952;2024-03-23T16:21:05;7.71;97.52